createdAt,value
2023-02-21T00:02:04.330Z,0.30
2023-02-21T00:04:50.155Z,0.30
2023-02-21T00:07:36.161Z,0.20
2023-02-21T00:10:23.412Z,0.10
2023-02-21T00:13:09.305Z,0.60
2023-02-21T00:15:55.294Z,0.60
2023-02-21T00:18:40.915Z,0.40
2023-02-21T00:21:26.988Z,0.00
2023-02-21T00:24:35.830Z,0.00
2023-02-21T00:27:23.387Z,0.00
2023-02-21T00:30:10.409Z,0.00
2023-02-21T00:32:56.626Z,0.10
2023-02-21T00:35:42.360Z,0.00
2023-02-21T00:38:29.775Z,0.10
2023-02-21T00:41:16.196Z,0.00
2023-02-21T00:44:01.996Z,0.00
2023-02-21T00:46:47.872Z,0.00
2023-02-21T00:49:34.264Z,0.00
2023-02-21T00:52:20.080Z,0.00
2023-02-21T00:55:05.912Z,0.00
2023-02-21T00:57:51.729Z,0.00
2023-02-21T01:00:41.135Z,0.00
2023-02-21T01:03:27.854Z,0.00
2023-02-21T01:06:14.129Z,0.00
2023-02-21T01:09:01.871Z,0.00
2023-02-21T01:11:47.731Z,0.00
2023-02-21T01:14:34.299Z,0.00
2023-02-21T01:17:20.592Z,0.00
2023-02-21T01:20:06.253Z,0.00
2023-02-21T01:22:52.409Z,0.10
2023-02-21T01:25:38.353Z,0.00
2023-02-21T01:28:24.338Z,0.00
2023-02-21T01:31:10.163Z,0.00
2023-02-21T01:33:58.658Z,0.00
2023-02-21T01:36:44.794Z,0.00
2023-02-21T01:39:31.079Z,0.50
2023-02-21T01:42:16.803Z,0.00
2023-02-21T01:45:04.345Z,0.10
2023-02-21T01:47:52.257Z,0.00
2023-02-21T01:50:47.013Z,0.00
2023-02-21T01:53:38.123Z,0.00
2023-02-21T01:56:25.178Z,0.00
2023-02-21T01:59:13.707Z,0.20
2023-02-21T02:02:11.664Z,0.00
2023-02-21T02:04:59.278Z,0.00
2023-02-21T02:07:44.927Z,0.00
2023-02-21T02:13:18.509Z,0.00
2023-02-21T02:15:57.807Z,0.00
2023-02-21T02:18:54.072Z,0.10
2023-02-21T02:21:36.465Z,0.10
2023-02-21T02:24:22.276Z,0.20
2023-02-21T02:27:27.009Z,0.10
2023-02-21T02:30:14.991Z,0.10
2023-02-21T02:33:07.464Z,0.10
2023-02-21T02:35:49.075Z,0.30
2023-02-21T02:38:56.421Z,0.00
2023-02-21T02:41:32.536Z,0.00
2023-02-21T02:44:07.040Z,0.20
2023-02-21T02:46:38.667Z,0.10
2023-02-21T02:49:10.553Z,0.10
2023-02-21T02:51:37.822Z,0.30
2023-02-21T02:54:05.483Z,0.10
2023-02-21T02:56:33.978Z,0.20
2023-02-21T02:59:11.331Z,0.20
2023-02-21T03:01:38.535Z,0.10
2023-02-21T03:04:29.593Z,0.50
2023-02-21T03:07:31.543Z,0.50
2023-02-21T03:10:26.178Z,0.40
2023-02-21T03:13:21.386Z,0.20
2023-02-21T03:16:20.323Z,0.20
2023-02-21T03:19:14.562Z,0.00
2023-02-21T03:21:46.914Z,0.10
2023-02-21T03:24:17.404Z,0.60
2023-02-21T03:26:48.131Z,0.10
2023-02-21T03:29:17.651Z,0.10
2023-02-21T03:31:51.815Z,0.40
2023-02-21T03:34:19.630Z,0.30
2023-02-21T03:36:47.523Z,0.10
2023-02-21T03:39:15.132Z,0.10
2023-02-21T03:41:42.446Z,0.10
2023-02-21T03:44:09.654Z,0.40
2023-02-21T03:46:38.227Z,0.30
2023-02-21T03:49:06.462Z,0.30
2023-02-21T03:51:33.856Z,0.20
2023-02-21T03:54:01.064Z,0.20
2023-02-21T03:56:41.268Z,0.40
2023-02-21T03:59:09.602Z,0.40
2023-02-21T04:01:36.927Z,0.40
2023-02-21T04:04:04.202Z,0.40
2023-02-21T04:06:31.508Z,0.10
2023-02-21T04:08:58.761Z,0.20
2023-02-21T04:11:25.961Z,0.20
2023-02-21T04:13:53.167Z,0.10
2023-02-21T04:16:20.413Z,0.10
2023-02-21T04:18:47.807Z,0.70
2023-02-21T04:21:18.768Z,0.50
2023-02-21T04:23:45.924Z,0.30
2023-02-21T04:26:13.320Z,0.30
2023-02-21T04:28:40.575Z,0.50
2023-02-21T04:31:07.811Z,0.20
2023-02-21T04:33:35.060Z,0.00
2023-02-21T04:36:02.252Z,0.10
2023-02-21T04:38:29.540Z,0.30
2023-02-21T04:40:56.780Z,0.40
2023-02-21T04:43:24.132Z,0.40
2023-02-21T04:45:51.982Z,0.40
2023-02-21T04:48:19.316Z,0.50
2023-02-21T04:50:46.653Z,0.40
2023-02-21T04:53:14.232Z,0.10
2023-02-21T04:55:41.548Z,1.10
2023-02-21T04:58:08.767Z,0.60
2023-02-21T05:00:35.928Z,0.40
2023-02-21T05:03:03.220Z,0.30
2023-02-21T05:05:30.566Z,0.20
2023-02-21T05:07:57.954Z,0.40
2023-02-21T05:10:31.099Z,0.60
2023-02-21T05:13:03.955Z,0.50
2023-02-21T05:15:31.285Z,0.50
2023-02-21T05:17:58.454Z,0.40
2023-02-21T05:20:25.703Z,0.70
2023-02-21T05:22:55.868Z,1.00
2023-02-21T05:25:24.023Z,1.30
2023-02-21T05:27:53.081Z,1.80
2023-02-21T05:30:23.572Z,0.70
2023-02-21T05:32:51.111Z,0.80
2023-02-21T05:35:18.684Z,0.70
2023-02-21T05:37:45.914Z,0.80
2023-02-21T05:40:13.783Z,0.90
2023-02-21T05:42:43.474Z,1.00
2023-02-21T05:45:11.652Z,0.80
2023-02-21T05:47:38.927Z,1.50
2023-02-21T05:50:06.525Z,1.80
2023-02-21T05:52:33.851Z,0.70
2023-02-21T05:55:01.104Z,0.70
2023-02-21T05:57:28.319Z,1.30
2023-02-21T05:59:55.516Z,1.50
2023-02-21T06:02:22.907Z,3.00
2023-02-21T06:04:50.093Z,0.80
2023-02-21T06:07:18.911Z,1.20
2023-02-21T06:09:46.115Z,1.20
2023-02-21T06:12:13.472Z,1.30
2023-02-21T06:14:40.684Z,0.90
2023-02-21T06:17:07.894Z,1.70
2023-02-21T06:19:35.072Z,0.70
2023-02-21T06:22:02.268Z,0.40
2023-02-21T06:24:29.465Z,1.30
2023-02-21T06:26:57.414Z,1.00
2023-02-21T06:29:24.681Z,0.70
2023-02-21T06:31:57.866Z,0.70
2023-02-21T06:34:25.667Z,1.30
2023-02-21T06:36:56.524Z,0.60
2023-02-21T06:39:24.050Z,1.40
2023-02-21T06:41:51.596Z,0.90
2023-02-21T06:44:18.966Z,1.00
2023-02-21T06:46:46.975Z,1.10
2023-02-21T06:49:14.238Z,0.50
2023-02-21T06:51:41.958Z,1.10
2023-02-21T06:54:09.900Z,1.30
2023-02-21T06:56:37.370Z,1.10
2023-02-21T06:59:05.655Z,0.90
2023-02-21T07:01:32.967Z,1.20
2023-02-21T07:04:00.258Z,1.10
2023-02-21T07:06:29.915Z,1.30
2023-02-21T07:08:57.720Z,1.30
2023-02-21T07:11:25.139Z,1.20
2023-02-21T07:13:54.221Z,1.20
2023-02-21T07:16:21.571Z,1.40
2023-02-21T07:18:48.957Z,1.90
2023-02-21T07:21:17.457Z,1.70
2023-02-21T07:23:45.529Z,1.40
2023-02-21T07:26:13.468Z,1.30
2023-02-21T07:28:41.984Z,1.80
2023-02-21T07:31:11.130Z,1.60
2023-02-21T07:33:38.336Z,1.30
2023-02-21T07:36:06.045Z,1.00
2023-02-21T07:38:33.483Z,1.20
2023-02-21T07:41:03.003Z,2.20
2023-02-21T07:43:31.988Z,1.10
2023-02-21T07:45:59.947Z,1.90
2023-02-21T07:48:27.421Z,1.30
2023-02-21T07:50:54.718Z,1.50
2023-02-21T07:53:21.935Z,1.60
2023-02-21T07:55:49.182Z,2.20
2023-02-21T07:58:16.571Z,2.00
2023-02-21T08:00:43.729Z,1.40
2023-02-21T08:03:14.361Z,1.60
2023-02-21T08:05:41.901Z,1.90
2023-02-21T08:08:10.221Z,2.00
2023-02-21T08:10:37.539Z,1.80
2023-02-21T08:13:05.714Z,1.90
2023-02-21T08:15:32.949Z,2.30
2023-02-21T08:18:00.160Z,2.60
2023-02-21T08:20:27.389Z,1.80
2023-02-21T08:22:54.543Z,2.30
2023-02-21T08:25:21.724Z,1.80
2023-02-21T08:27:53.686Z,1.30
2023-02-21T08:30:21.147Z,1.70
2023-02-21T08:32:48.766Z,3.10
2023-02-21T08:35:17.005Z,2.10
2023-02-21T08:37:49.373Z,2.40
2023-02-21T08:40:19.788Z,2.80
2023-02-21T08:42:51.888Z,2.00
2023-02-21T08:45:22.256Z,2.00
2023-02-21T08:47:50.127Z,2.20
2023-02-21T08:50:18.715Z,2.40
2023-02-21T08:52:47.620Z,2.40
2023-02-21T08:55:15.450Z,2.00
2023-02-21T08:57:42.696Z,1.90
2023-02-21T09:00:11.914Z,1.80
2023-02-21T09:02:40.314Z,2.00
2023-02-21T09:05:14.546Z,2.30
2023-02-21T09:07:41.972Z,2.70
2023-02-21T09:10:11.774Z,2.60
2023-02-21T09:12:39.135Z,1.90
2023-02-21T09:15:07.935Z,2.40
2023-02-21T09:17:35.597Z,2.60
2023-02-21T09:20:08.506Z,2.60
2023-02-21T09:22:35.743Z,2.90
2023-02-21T09:25:04.319Z,3.30
2023-02-21T09:27:37.426Z,2.60
2023-02-21T09:30:13.078Z,3.10
2023-02-21T09:32:41.857Z,2.20
2023-02-21T09:35:10.377Z,3.50
2023-02-21T09:37:39.348Z,8.70
2023-02-21T09:40:39.129Z,5.60
2023-02-21T09:43:12.402Z,4.20
2023-02-21T09:45:39.646Z,2.50
2023-02-21T09:48:13.383Z,2.40
2023-02-21T09:50:45.663Z,2.80
2023-02-21T09:53:20.753Z,2.70
2023-02-21T09:55:50.865Z,2.20
2023-02-21T09:58:20.451Z,2.60
2023-02-21T10:00:48.489Z,5.00
2023-02-21T10:03:24.630Z,3.20
2023-02-21T10:06:23.990Z,2.80
2023-02-21T10:09:35.022Z,2.30
2023-02-21T10:12:11.021Z,2.40
2023-02-21T10:15:09.366Z,3.50
2023-02-21T10:18:04.370Z,3.50
2023-02-21T10:20:43.868Z,2.40
2023-02-21T10:23:22.821Z,2.50
2023-02-21T10:25:53.263Z,2.70
2023-02-21T10:28:24.066Z,2.10
2023-02-21T10:30:58.634Z,2.90
2023-02-21T10:33:26.710Z,4.10
2023-02-21T10:35:55.307Z,13.50
2023-02-21T10:38:26.315Z,10.40
2023-02-21T10:40:57.931Z,11.10
2023-02-21T10:43:43.966Z,5.80
2023-02-21T10:46:37.289Z,3.90
2023-02-21T10:49:29.211Z,8.60
2023-02-21T10:52:08.714Z,5.90
2023-02-21T10:54:36.305Z,7.60
2023-02-21T10:57:07.772Z,9.40
2023-02-21T10:59:38.998Z,5.70
2023-02-21T11:02:33.240Z,3.90
2023-02-21T11:05:19.973Z,2.20
2023-02-21T11:08:07.795Z,2.80
2023-02-21T11:10:43.917Z,3.50
2023-02-21T11:13:11.073Z,2.70
2023-02-21T11:15:38.452Z,3.10
2023-02-21T11:18:13.454Z,2.80
2023-02-21T11:20:41.624Z,3.50
2023-02-21T11:23:30.191Z,2.40
2023-02-21T11:26:09.548Z,3.00
2023-02-21T11:28:45.114Z,2.50
2023-02-21T11:31:21.311Z,2.90
2023-02-21T11:34:04.109Z,2.60
2023-02-21T11:36:33.906Z,2.80
2023-02-21T11:39:28.086Z,4.00
2023-02-21T11:42:16.309Z,4.00
2023-02-21T11:44:43.789Z,3.40
2023-02-21T11:47:16.867Z,3.70
2023-02-21T11:50:07.679Z,2.30
2023-02-21T11:52:41.112Z,2.70
2023-02-21T11:55:19.575Z,2.20
2023-02-21T11:57:46.831Z,1.90
2023-02-21T12:00:32.772Z,2.50
2023-02-21T12:03:07.597Z,2.40
2023-02-21T12:05:59.456Z,3.00
2023-02-21T12:08:55.917Z,2.90
2023-02-21T12:11:41.860Z,2.10
2023-02-21T12:14:46.265Z,1.80
2023-02-21T12:17:25.289Z,2.40
2023-02-21T12:20:06.695Z,1.80
2023-02-21T12:22:42.445Z,2.20
2023-02-21T12:25:34.806Z,1.90
2023-02-21T12:28:20.147Z,2.00
2023-02-21T12:30:59.139Z,1.60
2023-02-21T12:33:58.971Z,1.70
2023-02-21T12:36:34.684Z,1.40
2023-02-21T12:39:16.255Z,2.80
2023-02-21T12:41:52.405Z,2.70
2023-02-21T12:44:49.633Z,2.00
2023-02-21T12:47:23.543Z,1.70
2023-02-21T12:50:12.481Z,2.30
2023-02-21T12:53:03.520Z,1.90
2023-02-21T12:55:37.040Z,2.60
2023-02-21T12:58:26.469Z,1.50
2023-02-21T13:01:12.130Z,1.90
2023-02-21T13:03:58.034Z,2.50
2023-02-21T13:06:36.562Z,2.00
2023-02-21T13:09:06.892Z,1.80
2023-02-21T13:11:37.792Z,2.10
2023-02-21T13:14:11.942Z,2.20
2023-02-21T13:16:39.956Z,1.70
2023-02-21T13:19:10.647Z,1.80
2023-02-21T13:21:49.894Z,2.40
2023-02-21T13:24:38.646Z,2.00
2023-02-21T13:27:42.509Z,3.10
2023-02-21T13:30:47.169Z,2.10
2023-02-21T13:33:30.643Z,2.70
2023-02-21T13:36:00.222Z,1.70
2023-02-21T13:38:31.434Z,2.20
2023-02-21T13:41:17.092Z,4.90
2023-02-21T13:43:51.153Z,2.20
2023-02-21T13:46:30.453Z,2.50
2023-02-21T13:49:35.073Z,2.30
2023-02-21T13:52:23.303Z,1.60
2023-02-21T13:55:09.037Z,2.90
2023-02-21T13:57:40.277Z,3.60
2023-02-21T14:00:33.789Z,2.10
2023-02-21T14:03:06.446Z,2.20
2023-02-21T14:05:51.968Z,3.60
2023-02-21T14:08:50.956Z,3.50
2023-02-21T14:11:32.303Z,3.30
2023-02-21T14:14:06.426Z,3.10
2023-02-21T14:16:35.283Z,5.80
2023-02-21T14:19:08.030Z,3.60
2023-02-21T14:21:43.278Z,5.10
2023-02-21T14:24:10.435Z,6.20
2023-02-21T14:26:51.934Z,3.70
2023-02-21T14:30:05.790Z,4.60
2023-02-21T14:32:37.157Z,1.90
2023-02-21T14:35:16.454Z,4.30
2023-02-21T14:38:18.090Z,6.50
2023-02-21T14:41:02.916Z,4.00
2023-02-21T14:44:01.539Z,6.10
2023-02-21T14:46:41.392Z,4.70
2023-02-21T14:49:33.118Z,4.40
2023-02-21T14:52:06.281Z,7.30
2023-02-21T14:54:37.531Z,7.30
2023-02-21T14:57:26.114Z,5.50
2023-02-21T15:00:19.125Z,6.10
2023-02-21T15:03:20.400Z,4.40
2023-02-21T15:05:50.983Z,6.20
2023-02-21T15:08:19.538Z,5.80
2023-02-21T15:10:49.099Z,5.00
2023-02-21T15:13:30.816Z,7.50
2023-02-21T15:15:58.077Z,5.40
2023-02-21T15:18:28.849Z,4.90
2023-02-21T15:21:11.095Z,5.30
2023-02-21T15:23:45.055Z,6.20
2023-02-21T15:26:22.148Z,6.10
2023-02-21T15:29:11.242Z,6.00
2023-02-21T15:31:51.518Z,7.30
2023-02-21T15:34:23.262Z,7.00
2023-02-21T15:37:04.800Z,3.30
2023-02-21T15:39:40.851Z,2.50
2023-02-21T15:42:11.796Z,3.60
2023-02-21T15:44:44.749Z,3.50
2023-02-21T15:47:16.273Z,3.00
2023-02-21T15:50:10.720Z,3.00
2023-02-21T15:52:37.891Z,2.40
2023-02-21T15:55:30.272Z,2.30
2023-02-21T15:58:06.622Z,3.00
2023-02-21T16:00:39.443Z,2.60
2023-02-21T16:03:33.886Z,2.90
2023-02-21T16:06:19.002Z,3.40
2023-02-21T16:08:58.826Z,3.30
2023-02-21T16:11:52.315Z,3.20
2023-02-21T16:14:38.556Z,2.80
2023-02-21T16:17:30.292Z,3.50
2023-02-21T16:20:29.944Z,4.20
2023-02-21T16:23:24.248Z,2.70
2023-02-21T16:26:10.020Z,3.60
2023-02-21T16:28:38.665Z,3.20
2023-02-21T16:31:08.660Z,2.30
2023-02-21T16:33:37.058Z,2.70
2023-02-21T16:36:10.424Z,2.50
2023-02-21T16:38:37.638Z,2.90
2023-02-21T16:41:04.932Z,2.90
2023-02-21T16:43:32.304Z,2.80
2023-02-21T16:46:00.105Z,2.60
2023-02-21T16:48:33.434Z,4.30
2023-02-21T16:51:03.789Z,3.20
2023-02-21T16:53:31.532Z,2.80
2023-02-21T16:56:01.351Z,3.60
2023-02-21T16:58:57.893Z,3.60
2023-02-21T17:01:30.706Z,3.50
2023-02-21T17:03:58.091Z,2.90
2023-02-21T17:06:27.709Z,3.70
2023-02-21T17:08:55.193Z,3.70
2023-02-21T17:11:22.897Z,4.70
2023-02-21T17:13:50.179Z,3.20
2023-02-21T17:16:18.694Z,6.70
2023-02-21T17:18:45.962Z,5.70
2023-02-21T17:21:13.412Z,10.50
2023-02-21T17:23:41.872Z,7.70
2023-02-21T17:26:09.304Z,5.60
2023-02-21T17:28:39.633Z,4.10
2023-02-21T17:31:07.144Z,4.40
2023-02-21T17:33:35.801Z,4.80
2023-02-21T17:36:03.180Z,5.30
2023-02-21T17:38:30.391Z,4.20
2023-02-21T17:40:57.856Z,3.70
2023-02-21T17:43:25.116Z,4.10
2023-02-21T17:45:52.336Z,5.60
2023-02-21T17:48:19.480Z,4.30
2023-02-21T17:50:46.850Z,2.80
2023-02-21T17:53:14.062Z,4.00
2023-02-21T17:55:41.363Z,4.00
2023-02-21T17:58:09.839Z,2.70
2023-02-21T18:00:37.074Z,3.10
2023-02-21T18:03:06.123Z,3.60
2023-02-21T18:05:34.128Z,4.00
2023-02-21T18:08:01.402Z,4.50
2023-02-21T18:10:28.677Z,4.10
2023-02-21T18:12:56.704Z,13.30
2023-02-21T18:15:27.533Z,6.40
2023-02-21T18:17:55.037Z,6.20
2023-02-21T18:20:22.705Z,9.60
2023-02-21T18:22:50.063Z,8.70
2023-02-21T18:25:21.382Z,8.10
2023-02-21T18:27:48.825Z,7.70
2023-02-21T18:30:18.284Z,6.40
2023-02-21T18:32:46.229Z,12.90
2023-02-21T18:35:15.728Z,59.60
2023-02-21T18:37:43.065Z,14.50
2023-02-21T18:40:10.950Z,21.60
2023-02-21T18:42:41.315Z,23.10
2023-02-21T18:45:09.114Z,22.70
2023-02-21T18:47:36.417Z,9.50
2023-02-21T18:50:04.748Z,8.20
2023-02-21T18:52:31.968Z,9.50
2023-02-21T18:55:03.828Z,12.20
2023-02-21T18:57:31.744Z,42.30
2023-02-21T18:59:59.170Z,36.30
2023-02-21T19:02:27.062Z,34.40
2023-02-21T19:04:54.547Z,35.90
2023-02-21T19:07:21.804Z,20.40
2023-02-21T19:09:52.077Z,24.60
2023-02-21T19:12:19.414Z,27.60
2023-02-21T19:14:47.120Z,46.60
2023-02-21T19:17:14.330Z,89.10
2023-02-21T19:19:41.602Z,63.50
2023-02-21T19:22:08.812Z,88.90
2023-02-21T19:24:36.036Z,60.40
2023-02-21T19:27:03.586Z,108.20
2023-02-21T19:29:30.828Z,20.80
2023-02-21T19:31:58.671Z,25.90
2023-02-21T19:34:26.391Z,29.40
2023-02-21T19:36:53.885Z,89.30
2023-02-21T19:39:28.884Z,21.50
2023-02-21T19:41:56.364Z,10.70
2023-02-21T19:44:23.583Z,8.80
2023-02-21T19:46:50.856Z,19.90
2023-02-21T19:49:18.308Z,18.20
2023-02-21T19:51:49.399Z,16.20
2023-02-21T19:54:20.101Z,17.80
2023-02-21T19:56:47.548Z,60.10
2023-02-21T19:59:14.852Z,65.20
2023-02-21T20:01:42.478Z,37.40
2023-02-21T20:04:09.818Z,30.40
2023-02-21T20:06:38.119Z,21.40
2023-02-21T20:09:08.604Z,47.90
2023-02-21T20:11:40.299Z,44.40
2023-02-21T20:14:08.739Z,46.70
2023-02-21T20:16:44.479Z,28.90
2023-02-21T20:19:13.096Z,39.20
2023-02-21T20:21:40.513Z,31.40
2023-02-21T20:24:07.997Z,41.20
2023-02-21T20:26:35.572Z,73.40
2023-02-21T20:29:03.528Z,56.90
2023-02-21T20:31:37.508Z,48.00
2023-02-21T20:34:07.345Z,27.90
2023-02-21T20:36:38.231Z,44.20
2023-02-21T20:39:07.353Z,34.40
2023-02-21T20:41:38.239Z,38.10
2023-02-21T20:44:05.482Z,28.20
2023-02-21T20:46:35.054Z,37.40
2023-02-21T20:49:03.526Z,43.90
2023-02-21T20:51:35.419Z,36.50
2023-02-21T20:54:05.016Z,35.90
2023-02-21T20:56:34.425Z,37.10
2023-02-21T20:59:05.123Z,39.40
2023-02-21T21:01:32.353Z,34.90
2023-02-21T21:03:59.814Z,32.70
2023-02-21T21:06:27.078Z,26.80
2023-02-21T21:08:54.640Z,23.20
2023-02-21T21:11:22.109Z,18.20
2023-02-21T21:13:50.266Z,17.40
2023-02-21T21:16:18.607Z,16.80
2023-02-21T21:18:47.179Z,21.10
2023-02-21T21:21:14.904Z,25.00
2023-02-21T21:23:42.312Z,28.80
2023-02-21T21:26:09.679Z,29.50
2023-02-21T21:28:37.006Z,34.10
2023-02-21T21:31:04.631Z,26.00
2023-02-21T21:33:31.918Z,26.30
2023-02-21T21:35:59.086Z,21.30
2023-02-21T21:38:27.962Z,20.50
2023-02-21T21:40:57.014Z,20.20
2023-02-21T21:43:25.057Z,26.30
2023-02-21T21:45:52.819Z,21.50
2023-02-21T21:48:20.062Z,24.70
2023-02-21T21:50:47.416Z,41.10
2023-02-21T21:53:14.732Z,27.70
2023-02-21T21:55:42.139Z,40.70
2023-02-21T21:58:14.088Z,25.40
2023-02-21T22:00:42.239Z,26.00
2023-02-21T22:03:14.652Z,30.30
2023-02-21T22:05:45.962Z,21.20
2023-02-21T22:08:18.093Z,18.10
2023-02-21T22:10:46.096Z,22.70
2023-02-21T22:13:20.951Z,21.30
2023-02-21T22:15:49.070Z,33.60
2023-02-21T22:18:18.431Z,31.20
2023-02-21T22:20:49.773Z,27.70
2023-02-21T22:23:21.429Z,20.20
2023-02-21T22:25:49.027Z,29.20
2023-02-21T22:28:18.796Z,27.80
2023-02-21T22:30:46.378Z,31.60
2023-02-21T22:33:18.864Z,26.40
2023-02-21T22:35:47.415Z,29.70
2023-02-21T22:38:17.354Z,46.70
2023-02-21T22:40:46.421Z,52.10
2023-02-21T22:43:14.557Z,44.70
2023-02-21T22:45:50.181Z,54.80
2023-02-21T22:48:20.551Z,28.30
2023-02-21T22:50:48.421Z,17.30
2023-02-21T22:53:19.074Z,20.00
2023-02-21T22:55:51.890Z,21.90
2023-02-21T22:58:20.657Z,23.40
2023-02-21T23:00:49.428Z,30.00
2023-02-21T23:03:18.334Z,41.50
2023-02-21T23:05:50.227Z,28.60
2023-02-21T23:08:23.022Z,26.50
2023-02-21T23:10:51.743Z,18.50
2023-02-21T23:13:21.517Z,24.20
2023-02-21T23:15:49.237Z,28.10
2023-02-21T23:18:20.850Z,22.30
2023-02-21T23:20:53.156Z,23.00
2023-02-21T23:23:26.064Z,30.20
2023-02-21T23:26:01.349Z,29.90
2023-02-21T23:28:30.572Z,20.20
2023-02-21T23:30:58.499Z,24.70
2023-02-21T23:33:30.446Z,27.60
2023-02-21T23:35:58.176Z,30.00
2023-02-21T23:38:28.418Z,21.80
2023-02-21T23:40:58.604Z,22.30
2023-02-21T23:43:29.796Z,43.30
2023-02-21T23:45:58.591Z,54.90
2023-02-21T23:48:26.462Z,29.10
2023-02-21T23:50:58.057Z,26.90
2023-02-21T23:53:27.903Z,24.10
2023-02-21T23:55:57.797Z,24.50
2023-02-21T23:58:27.991Z,18.30
